createdAt,value
2018-01-27T00:00:34.587Z,19.45
2018-01-27T00:03:02.056Z,19.45
2018-01-27T00:05:29.482Z,19.52
2018-01-27T00:07:56.857Z,19.48
2018-01-27T00:10:24.303Z,19.40
2018-01-27T00:12:51.669Z,19.46
2018-01-27T00:15:19.162Z,19.43
2018-01-27T00:17:46.933Z,19.49
2018-01-27T00:20:14.309Z,19.40
2018-01-27T00:22:41.713Z,19.39
2018-01-27T00:25:09.124Z,19.35
2018-01-27T00:27:36.501Z,19.41
2018-01-27T00:30:04.027Z,19.36
2018-01-27T00:32:31.461Z,19.37
2018-01-27T00:34:58.830Z,19.37
2018-01-27T00:37:26.237Z,19.37
2018-01-27T00:39:53.613Z,19.39
2018-01-27T00:42:21.006Z,19.33
2018-01-27T00:44:48.411Z,19.31
2018-01-27T00:47:15.852Z,19.27
2018-01-27T00:49:43.221Z,19.21
2018-01-27T00:52:10.679Z,19.31
2018-01-27T00:54:38.050Z,19.30
2018-01-27T00:57:05.521Z,19.32
2018-01-27T00:59:32.930Z,19.26
2018-01-27T01:02:00.315Z,19.29
2018-01-27T01:04:27.762Z,19.28
2018-01-27T01:06:55.204Z,19.27
2018-01-27T01:09:22.592Z,19.19
2018-01-27T01:11:50.007Z,19.21
2018-01-27T01:14:17.382Z,19.22
2018-01-27T01:16:44.805Z,19.10
2018-01-27T01:19:12.213Z,19.18
2018-01-27T01:21:39.612Z,19.20
2018-01-27T01:24:07.047Z,19.20
2018-01-27T01:26:34.428Z,19.21
2018-01-27T01:29:02.653Z,19.13
2018-01-27T01:31:30.059Z,19.13
2018-01-27T01:33:57.465Z,19.12
2018-01-27T01:36:24.870Z,19.14
2018-01-27T01:38:52.236Z,19.10
2018-01-27T01:41:19.682Z,19.09
2018-01-27T01:43:47.090Z,19.14
2018-01-27T01:46:14.565Z,19.13
2018-01-27T01:48:41.983Z,19.10
2018-01-27T01:51:09.397Z,19.15
2018-01-27T01:53:36.836Z,19.05
2018-01-27T01:56:04.255Z,19.01
2018-01-27T01:58:31.630Z,19.00
2018-01-27T02:00:59.127Z,19.01
2018-01-27T02:03:26.495Z,19.04
2018-01-27T02:05:53.905Z,19.03
2018-01-27T02:08:21.294Z,19.07
2018-01-27T02:10:48.654Z,19.03
2018-01-27T02:13:16.208Z,18.95
2018-01-27T02:15:43.607Z,19.01
2018-01-27T02:18:10.993Z,18.96
2018-01-27T02:20:38.431Z,18.91
2018-01-27T02:23:05.814Z,18.96
2018-01-27T02:25:33.211Z,18.89
2018-01-27T02:28:00.692Z,18.97
2018-01-27T02:30:28.102Z,19.01
2018-01-27T02:32:55.507Z,18.93
2018-01-27T02:35:22.989Z,18.93
2018-01-27T02:37:50.392Z,18.93
2018-01-27T02:40:17.794Z,18.90
2018-01-27T02:42:45.223Z,18.89
2018-01-27T02:45:12.601Z,18.90
2018-01-27T02:47:40.014Z,18.88
2018-01-27T02:50:07.419Z,18.89
2018-01-27T02:52:34.822Z,18.91
2018-01-27T02:55:02.225Z,18.89
2018-01-27T02:57:29.613Z,18.83
2018-01-27T02:59:57.056Z,18.84
2018-01-27T03:02:24.430Z,18.87
2018-01-27T03:04:51.847Z,18.85
2018-01-27T03:07:19.262Z,18.84
2018-01-27T03:09:46.794Z,18.83
2018-01-27T03:12:14.207Z,18.88
2018-01-27T03:14:41.593Z,18.82
2018-01-27T03:17:09.031Z,18.82
2018-01-27T03:19:36.471Z,18.76
2018-01-27T03:22:03.854Z,18.77
2018-01-27T03:24:31.307Z,18.81
2018-01-27T03:26:58.724Z,18.79
2018-01-27T03:29:26.126Z,18.81
2018-01-27T03:31:53.557Z,18.79
2018-01-27T03:34:20.939Z,18.78
2018-01-27T03:36:48.342Z,18.73
2018-01-27T03:39:15.818Z,18.70
2018-01-27T03:41:43.351Z,18.69
2018-01-27T03:44:10.767Z,18.71
2018-01-27T03:46:38.146Z,18.71
2018-01-27T03:49:05.576Z,18.76
2018-01-27T03:51:33.011Z,18.72
2018-01-27T03:54:00.383Z,18.70
2018-01-27T03:56:27.853Z,18.74
2018-01-27T03:58:55.344Z,18.64
2018-01-27T04:01:22.800Z,18.65
2018-01-27T04:03:50.299Z,18.67
2018-01-27T04:06:17.741Z,18.66
2018-01-27T04:08:45.291Z,18.67
2018-01-27T04:11:12.674Z,18.65
2018-01-27T04:13:40.067Z,18.65
2018-01-27T04:16:07.463Z,18.65
2018-01-27T04:18:34.856Z,18.65
2018-01-27T04:21:02.306Z,18.64
2018-01-27T04:23:29.679Z,18.58
2018-01-27T04:25:57.133Z,18.58
2018-01-27T04:28:24.546Z,18.61
2018-01-27T04:30:52.004Z,18.49
2018-01-27T04:33:19.381Z,18.54
2018-01-27T04:35:46.910Z,18.62
2018-01-27T04:38:14.324Z,18.62
2018-01-27T04:40:41.782Z,18.61
2018-01-27T04:43:09.155Z,18.57
2018-01-27T04:45:36.566Z,18.51
2018-01-27T04:48:03.960Z,18.53
2018-01-27T04:50:31.438Z,18.48
2018-01-27T04:52:58.836Z,18.56
2018-01-27T04:55:26.309Z,18.54
2018-01-27T04:57:53.679Z,18.55
2018-01-27T05:00:21.102Z,18.58
2018-01-27T05:02:48.530Z,18.56
2018-01-27T05:05:16.223Z,18.44
2018-01-27T05:07:43.745Z,18.48
2018-01-27T05:10:11.213Z,18.48
2018-01-27T05:12:38.615Z,18.46
2018-01-27T05:15:06.028Z,18.48
2018-01-27T05:17:33.457Z,18.41
2018-01-27T05:20:00.911Z,18.49
2018-01-27T05:22:28.406Z,18.49
2018-01-27T05:24:55.783Z,18.49
2018-01-27T05:27:23.208Z,18.48
2018-01-27T05:29:50.594Z,18.41
2018-01-27T05:32:18.055Z,18.39
2018-01-27T05:34:45.478Z,18.41
2018-01-27T05:37:12.891Z,18.44
2018-01-27T05:39:41.166Z,18.36
2018-01-27T05:42:08.575Z,18.46
2018-01-27T05:44:36.056Z,18.42
2018-01-27T05:47:03.447Z,18.46
2018-01-27T05:49:30.870Z,18.42
2018-01-27T05:51:58.243Z,18.44
2018-01-27T05:54:25.649Z,18.41
2018-01-27T05:56:53.105Z,18.32
2018-01-27T05:59:20.493Z,18.30
2018-01-27T06:01:47.930Z,18.40
2018-01-27T06:04:15.317Z,18.44
2018-01-27T06:06:42.803Z,18.48
2018-01-27T06:09:10.223Z,18.30
2018-01-27T06:11:37.610Z,18.45
2018-01-27T06:14:05.018Z,18.39
2018-01-27T06:16:32.492Z,18.45
2018-01-27T06:18:59.962Z,18.41
2018-01-27T06:21:27.446Z,18.46
2018-01-27T06:23:54.877Z,18.46
2018-01-27T06:26:22.292Z,18.57
2018-01-27T06:28:49.799Z,18.58
2018-01-27T06:31:17.177Z,18.61
2018-01-27T06:33:44.619Z,18.58
2018-01-27T06:36:12.011Z,18.59
2018-01-27T06:38:39.408Z,18.64
2018-01-27T06:41:06.851Z,18.65
2018-01-27T06:43:34.243Z,18.66
2018-01-27T06:46:01.695Z,18.72
2018-01-27T06:48:29.099Z,18.73
2018-01-27T06:50:56.566Z,18.77
2018-01-27T06:53:23.953Z,18.79
2018-01-27T06:55:51.409Z,18.82
2018-01-27T06:58:18.804Z,18.79
2018-01-27T07:00:46.365Z,18.86
2018-01-27T07:03:13.918Z,18.88
2018-01-27T07:05:41.300Z,18.89
2018-01-27T07:08:08.686Z,18.95
2018-01-27T07:10:36.146Z,18.95
2018-01-27T07:13:03.554Z,18.98
2018-01-27T07:15:30.981Z,18.99
2018-01-27T07:17:58.454Z,19.00
2018-01-27T07:20:25.889Z,18.99
2018-01-27T07:22:53.303Z,19.01
2018-01-27T07:25:20.731Z,19.04
2018-01-27T07:27:48.127Z,19.10
2018-01-27T07:30:15.543Z,19.09
2018-01-27T07:32:42.917Z,19.10
2018-01-27T07:35:10.324Z,19.15
2018-01-27T07:37:37.704Z,19.13
2018-01-27T07:40:05.091Z,19.10
2018-01-27T07:42:32.526Z,19.10
2018-01-27T07:44:59.948Z,19.10
2018-01-27T07:47:28.081Z,19.09
2018-01-27T07:49:55.433Z,19.08
2018-01-27T07:52:22.836Z,19.14
2018-01-27T07:54:50.247Z,19.18
2018-01-27T07:57:17.653Z,19.15
2018-01-27T07:59:45.061Z,19.15
2018-01-27T08:02:12.466Z,19.14
2018-01-27T08:04:39.838Z,19.14
2018-01-27T08:07:07.283Z,19.18
2018-01-27T08:09:34.824Z,19.14
2018-01-27T08:12:02.330Z,19.18
2018-01-27T08:14:29.737Z,19.21
2018-01-27T08:16:57.107Z,19.15
2018-01-27T08:19:24.536Z,19.16
2018-01-27T08:21:51.971Z,19.14
2018-01-27T08:24:19.363Z,19.16
2018-01-27T08:26:46.961Z,19.17
2018-01-27T08:29:14.326Z,19.13
2018-01-27T08:31:41.700Z,19.15
2018-01-27T08:34:09.117Z,19.17
2018-01-27T08:36:36.542Z,19.17
2018-01-27T08:39:03.974Z,19.13
2018-01-27T08:41:31.383Z,19.06
2018-01-27T08:43:58.828Z,19.09
2018-01-27T08:46:26.205Z,19.11
2018-01-27T08:48:53.582Z,19.11
2018-01-27T08:51:21.001Z,19.11
2018-01-27T08:53:48.439Z,19.08
2018-01-27T08:56:15.820Z,19.06
2018-01-27T08:58:43.180Z,19.11
2018-01-27T09:01:10.569Z,19.08
2018-01-27T09:03:37.974Z,19.08
2018-01-27T09:06:05.446Z,19.10
2018-01-27T09:08:32.826Z,19.09
2018-01-27T09:11:00.271Z,19.10
2018-01-27T09:13:28.671Z,19.10
2018-01-27T09:15:56.084Z,19.09
2018-01-27T09:18:23.517Z,19.08
2018-01-27T09:20:50.950Z,19.10
2018-01-27T09:23:18.331Z,19.03
2018-01-27T09:25:45.769Z,19.06
2018-01-27T09:28:13.181Z,19.08
2018-01-27T09:30:40.625Z,19.05
2018-01-27T09:33:08.016Z,19.09
2018-01-27T09:35:35.410Z,19.08
2018-01-27T09:38:02.930Z,19.10
2018-01-27T09:40:30.375Z,19.07
2018-01-27T09:42:58.346Z,19.10
2018-01-27T09:45:25.761Z,19.07
2018-01-27T09:47:53.117Z,19.11
2018-01-27T09:50:20.533Z,19.09
2018-01-27T09:52:47.921Z,19.07
2018-01-27T09:55:15.326Z,19.11
2018-01-27T09:57:42.714Z,19.11
2018-01-27T10:00:10.222Z,19.11
2018-01-27T10:02:37.599Z,19.12
2018-01-27T10:05:05.026Z,19.07
2018-01-27T10:07:32.522Z,19.11
2018-01-27T10:09:59.940Z,19.08
2018-01-27T10:12:27.362Z,19.13
2018-01-27T10:14:54.764Z,19.05
2018-01-27T10:17:22.194Z,19.10
2018-01-27T10:19:49.581Z,19.09
2018-01-27T10:22:17.065Z,19.12
2018-01-27T10:24:44.449Z,19.04
2018-01-27T10:27:11.823Z,19.12
2018-01-27T10:29:39.293Z,19.13
2018-01-27T10:32:06.755Z,19.11
2018-01-27T10:34:34.171Z,19.13
2018-01-27T10:37:01.712Z,19.16
2018-01-27T10:39:29.128Z,19.15
2018-01-27T10:41:56.538Z,19.20
2018-01-27T10:44:24.005Z,19.19
2018-01-27T10:46:51.395Z,19.23
2018-01-27T10:49:19.417Z,19.31
2018-01-27T10:51:46.925Z,19.43
2018-01-27T10:54:14.417Z,19.37
2018-01-27T10:56:41.798Z,19.41
2018-01-27T10:59:09.232Z,19.41
2018-01-27T11:01:36.633Z,19.44
2018-01-27T11:04:04.039Z,19.33
2018-01-27T11:06:31.482Z,19.37
2018-01-27T11:08:58.933Z,19.48
2018-01-27T11:11:26.330Z,19.48
2018-01-27T11:13:53.696Z,19.52
2018-01-27T11:16:21.199Z,19.54
2018-01-27T11:18:48.594Z,19.47
2018-01-27T11:21:16.015Z,19.54
2018-01-27T11:23:43.451Z,19.59
2018-01-27T11:26:10.859Z,19.53
2018-01-27T11:28:38.296Z,19.56
2018-01-27T11:31:05.785Z,19.58
2018-01-27T11:33:33.202Z,19.54
2018-01-27T11:36:00.611Z,19.64
2018-01-27T11:38:28.094Z,19.62
2018-01-27T11:40:55.513Z,19.64
2018-01-27T11:43:22.921Z,19.62
2018-01-27T11:45:50.424Z,19.71
2018-01-27T11:48:17.826Z,19.65
2018-01-27T11:50:45.247Z,19.65
2018-01-27T11:53:12.704Z,19.65
2018-01-27T11:55:40.084Z,19.64
2018-01-27T11:58:07.529Z,19.62
2018-01-27T12:00:34.977Z,19.64
2018-01-27T12:03:02.402Z,19.65
2018-01-27T12:05:29.818Z,19.66
2018-01-27T12:07:57.241Z,19.67
2018-01-27T12:10:24.698Z,19.66
2018-01-27T12:12:52.058Z,19.68
2018-01-27T12:15:19.474Z,19.71
2018-01-27T12:17:46.957Z,19.71
2018-01-27T12:20:14.378Z,19.69
2018-01-27T12:22:41.792Z,19.73
2018-01-27T12:25:09.214Z,19.73
2018-01-27T12:27:36.596Z,19.74
2018-01-27T12:30:04.071Z,19.72
2018-01-27T12:32:31.464Z,19.74
2018-01-27T12:34:58.899Z,19.74
2018-01-27T12:37:26.403Z,19.75
2018-01-27T12:39:53.784Z,19.77
2018-01-27T12:42:21.391Z,19.76
2018-01-27T12:44:48.756Z,19.73
2018-01-27T12:47:16.191Z,19.76
2018-01-27T12:49:43.607Z,19.78
2018-01-27T12:52:11.043Z,19.76
2018-01-27T12:54:38.501Z,19.82
2018-01-27T12:57:05.966Z,19.71
2018-01-27T12:59:33.396Z,19.83
2018-01-27T13:02:00.897Z,19.83
2018-01-27T13:04:28.443Z,19.84
2018-01-27T13:06:55.871Z,19.83
2018-01-27T13:09:23.301Z,19.82
2018-01-27T13:11:50.734Z,19.88
2018-01-27T13:14:18.157Z,19.81
2018-01-27T13:16:45.545Z,19.78
2018-01-27T13:19:12.989Z,19.76
2018-01-27T13:21:40.377Z,19.77
2018-01-27T13:24:07.753Z,19.72
2018-01-27T13:26:35.245Z,19.69
2018-01-27T13:29:02.684Z,19.70
2018-01-27T13:31:30.085Z,19.65
2018-01-27T13:33:57.607Z,19.69
2018-01-27T13:36:24.975Z,19.65
2018-01-27T13:38:52.414Z,19.68
2018-01-27T13:41:19.851Z,19.67
2018-01-27T13:43:47.307Z,19.62
2018-01-27T13:46:14.720Z,19.61
2018-01-27T13:48:42.141Z,19.62
2018-01-27T13:51:09.505Z,19.62
2018-01-27T13:53:36.947Z,19.61
2018-01-27T13:56:04.324Z,19.58
2018-01-27T13:58:31.743Z,19.59
2018-01-27T14:00:59.118Z,19.58
2018-01-27T14:03:26.578Z,19.60
2018-01-27T14:05:53.991Z,19.58
2018-01-27T14:08:21.370Z,19.56
2018-01-27T14:10:49.682Z,19.52
2018-01-27T14:13:17.082Z,19.53
2018-01-27T14:15:44.505Z,19.53
2018-01-27T14:18:11.916Z,19.52
2018-01-27T14:20:39.278Z,19.54
2018-01-27T14:23:06.732Z,19.55
2018-01-27T14:25:34.172Z,19.49
2018-01-27T14:28:01.684Z,19.50
2018-01-27T14:30:29.081Z,19.50
2018-01-27T14:32:56.455Z,19.50
2018-01-27T14:35:23.947Z,19.49
2018-01-27T14:37:51.313Z,19.48
2018-01-27T14:40:18.747Z,19.47
2018-01-27T14:42:46.126Z,19.46
2018-01-27T14:45:13.575Z,19.46
2018-01-27T14:47:40.950Z,19.47
2018-01-27T14:50:08.326Z,19.43
2018-01-27T14:52:35.746Z,19.46
2018-01-27T14:55:03.186Z,19.41
2018-01-27T14:57:30.585Z,19.40
2018-01-27T14:59:57.998Z,19.39
2018-01-27T15:02:25.406Z,19.41
2018-01-27T15:04:52.759Z,19.38
2018-01-27T15:07:20.174Z,19.39
2018-01-27T15:09:47.574Z,19.38
2018-01-27T15:12:15.006Z,19.37
2018-01-27T15:14:42.403Z,19.33
2018-01-27T15:17:09.817Z,19.33
2018-01-27T15:19:37.221Z,19.34
2018-01-27T15:22:04.742Z,19.31
2018-01-27T15:24:32.140Z,19.32
2018-01-27T15:26:59.534Z,19.32
2018-01-27T15:29:26.973Z,19.33
2018-01-27T15:31:54.371Z,19.30
2018-01-27T15:34:21.789Z,19.28
2018-01-27T15:36:49.183Z,19.25
2018-01-27T15:39:16.635Z,19.21
2018-01-27T15:41:44.049Z,19.27
2018-01-27T15:44:11.445Z,19.25
2018-01-27T15:46:38.819Z,19.27
2018-01-27T15:49:06.240Z,19.26
2018-01-27T15:51:33.675Z,19.25
2018-01-27T15:54:01.070Z,19.21
2018-01-27T15:56:28.482Z,19.22
2018-01-27T15:58:55.910Z,19.21
2018-01-27T16:01:23.293Z,19.21
2018-01-27T16:03:50.745Z,19.21
2018-01-27T16:06:18.239Z,19.16
2018-01-27T16:08:45.617Z,19.17
2018-01-27T16:11:13.004Z,19.21
2018-01-27T16:13:40.446Z,19.11
2018-01-27T16:16:07.892Z,19.17
2018-01-27T16:18:35.349Z,19.19
2018-01-27T16:21:02.830Z,19.16
2018-01-27T16:23:30.289Z,19.13
2018-01-27T16:25:57.683Z,19.15
2018-01-27T16:28:25.033Z,19.15
2018-01-27T16:30:52.472Z,19.16
2018-01-27T16:33:19.885Z,19.10
2018-01-27T16:35:47.260Z,19.11
2018-01-27T16:38:14.691Z,19.10
2018-01-27T16:40:42.065Z,19.03
2018-01-27T16:43:09.482Z,19.07
2018-01-27T16:45:36.823Z,19.07
2018-01-27T16:48:04.224Z,19.09
2018-01-27T16:50:31.684Z,18.99
2018-01-27T16:52:59.128Z,19.09
2018-01-27T16:55:26.489Z,19.05
2018-01-27T16:57:53.898Z,19.05
2018-01-27T17:00:21.402Z,19.04
2018-01-27T17:02:48.809Z,19.02
2018-01-27T17:05:16.189Z,19.04
2018-01-27T17:07:43.654Z,18.99
2018-01-27T17:10:11.070Z,19.00
2018-01-27T17:12:38.447Z,19.01
2018-01-27T17:15:05.854Z,19.01
2018-01-27T17:17:33.305Z,18.99
2018-01-27T17:20:00.719Z,18.99
2018-01-27T17:22:28.122Z,18.96
2018-01-27T17:24:55.575Z,18.97
2018-01-27T17:27:22.972Z,18.94
2018-01-27T17:29:50.357Z,18.97
2018-01-27T17:32:17.784Z,18.96
2018-01-27T17:34:45.154Z,18.97
2018-01-27T17:37:12.573Z,18.92
2018-01-27T17:39:39.989Z,18.93
2018-01-27T17:42:07.363Z,18.95
2018-01-27T17:44:34.802Z,18.93
2018-01-27T17:47:02.283Z,18.90
2018-01-27T17:49:29.708Z,18.88
2018-01-27T17:51:57.110Z,18.87
2018-01-27T17:54:24.493Z,18.90
2018-01-27T17:56:51.934Z,18.91
2018-01-27T17:59:19.311Z,18.90
2018-01-27T18:01:46.769Z,18.88
2018-01-27T18:04:14.155Z,18.88
2018-01-27T18:06:41.583Z,18.85
2018-01-27T18:09:08.990Z,18.85
2018-01-27T18:11:36.432Z,18.87
2018-01-27T18:14:03.796Z,18.81
2018-01-27T18:16:31.206Z,18.88
2018-01-27T18:18:58.610Z,18.85
2018-01-27T18:21:26.049Z,18.87
2018-01-27T18:23:53.481Z,18.85
2018-01-27T18:26:20.874Z,18.83
2018-01-27T18:28:48.264Z,18.81
2018-01-27T18:31:15.698Z,18.84
2018-01-27T18:33:43.138Z,18.82
2018-01-27T18:36:10.539Z,18.78
2018-01-27T18:38:37.914Z,18.79
2018-01-27T18:41:05.508Z,18.73
2018-01-27T18:43:32.880Z,18.74
2018-01-27T18:46:00.307Z,18.71
2018-01-27T18:48:27.718Z,18.73
2018-01-27T18:50:55.106Z,18.76
2018-01-27T18:53:22.485Z,18.75
2018-01-27T18:55:49.903Z,18.74
2018-01-27T18:58:17.317Z,18.74
2018-01-27T19:00:44.782Z,18.76
2018-01-27T19:03:12.223Z,18.71
2018-01-27T19:05:39.615Z,18.71
2018-01-27T19:08:07.047Z,18.70
2018-01-27T19:10:34.460Z,18.66
2018-01-27T19:13:01.874Z,18.73
2018-01-27T19:15:29.241Z,18.72
2018-01-27T19:17:56.650Z,18.71
2018-01-27T19:20:24.059Z,18.76
2018-01-27T19:22:51.532Z,18.69
2018-01-27T19:25:18.902Z,18.68
2018-01-27T19:27:46.297Z,18.67
2018-01-27T19:30:13.737Z,18.67
2018-01-27T19:32:41.103Z,18.68
2018-01-27T19:35:10.856Z,18.60
2018-01-27T19:37:38.225Z,18.66
2018-01-27T19:40:05.718Z,18.65
2018-01-27T19:42:33.134Z,18.65
2018-01-27T19:45:00.496Z,18.61
2018-01-27T19:47:27.930Z,18.62
2018-01-27T19:49:55.307Z,18.61
2018-01-27T19:52:22.689Z,18.64
2018-01-27T19:54:50.098Z,18.64
2018-01-27T19:57:17.490Z,18.62
2018-01-27T19:59:44.898Z,18.64
2018-01-27T20:02:12.402Z,18.63
2018-01-27T20:04:39.774Z,18.62
2018-01-27T20:07:07.203Z,18.59
2018-01-27T20:09:34.591Z,18.58
2018-01-27T20:12:01.998Z,18.58
2018-01-27T20:14:29.344Z,18.58
2018-01-27T20:16:56.773Z,18.56
2018-01-27T20:19:24.224Z,18.58
2018-01-27T20:21:51.670Z,18.59
2018-01-27T20:24:19.063Z,18.60
2018-01-27T20:26:46.470Z,18.55
2018-01-27T20:29:13.839Z,18.52
2018-01-27T20:31:41.250Z,18.54
2018-01-27T20:34:08.616Z,18.51
2018-01-27T20:36:36.036Z,18.51
2018-01-27T20:39:03.499Z,18.55
2018-01-27T20:41:30.882Z,18.51
2018-01-27T20:43:58.249Z,18.57
2018-01-27T20:46:25.629Z,18.54
2018-01-27T20:48:52.995Z,18.52
2018-01-27T20:51:20.398Z,18.51
2018-01-27T20:53:47.810Z,18.53
2018-01-27T20:56:15.311Z,18.51
2018-01-27T20:58:42.681Z,18.51
2018-01-27T21:01:10.065Z,18.49
2018-01-27T21:03:37.499Z,18.46
2018-01-27T21:06:04.897Z,18.51
2018-01-27T21:08:32.324Z,18.47
2018-01-27T21:10:59.744Z,18.43
2018-01-27T21:13:27.140Z,18.41
2018-01-27T21:15:54.543Z,18.42
2018-01-27T21:18:21.927Z,18.47
2018-01-27T21:20:49.352Z,18.47
2018-01-27T21:23:16.726Z,18.47
2018-01-27T21:25:44.188Z,18.45
2018-01-27T21:28:11.583Z,18.43
2018-01-27T21:30:39.024Z,18.39
2018-01-27T21:33:06.417Z,18.35
2018-01-27T21:35:33.833Z,18.37
2018-01-27T21:38:01.253Z,18.39
2018-01-27T21:40:28.614Z,18.41
2018-01-27T21:42:56.003Z,18.44
2018-01-27T21:45:23.434Z,18.42
2018-01-27T21:47:50.878Z,18.41
2018-01-27T21:50:18.285Z,18.35
2018-01-27T21:52:45.726Z,18.31
2018-01-27T21:55:13.142Z,18.34
2018-01-27T21:57:40.546Z,18.33
2018-01-27T22:00:07.920Z,18.37
2018-01-27T22:02:35.371Z,18.35
2018-01-27T22:05:02.779Z,18.40
2018-01-27T22:07:30.195Z,18.38
2018-01-27T22:09:57.693Z,18.35
2018-01-27T22:12:25.058Z,18.30
2018-01-27T22:14:52.460Z,18.30
2018-01-27T22:17:20.156Z,18.32
2018-01-27T22:19:47.557Z,18.27
2018-01-27T22:22:14.948Z,18.32
2018-01-27T22:24:42.367Z,18.31
2018-01-27T22:27:09.760Z,18.34
2018-01-27T22:29:37.161Z,18.31
2018-01-27T22:32:04.568Z,18.29
2018-01-27T22:34:31.933Z,18.26
2018-01-27T22:36:59.334Z,18.26
2018-01-27T22:39:26.701Z,18.24
2018-01-27T22:41:54.133Z,18.28
2018-01-27T22:44:21.511Z,18.28
2018-01-27T22:46:48.939Z,18.29
2018-01-27T22:49:16.354Z,18.27
2018-01-27T22:51:43.788Z,18.26
2018-01-27T22:54:11.203Z,18.26
2018-01-27T22:56:38.561Z,18.26
2018-01-27T22:59:05.970Z,18.19
2018-01-27T23:01:33.379Z,18.21
2018-01-27T23:04:00.809Z,18.19
2018-01-27T23:06:28.274Z,18.21
2018-01-27T23:08:55.762Z,18.23
2018-01-27T23:11:23.164Z,18.21
2018-01-27T23:13:50.536Z,18.19
2018-01-27T23:16:17.947Z,18.22
2018-01-27T23:18:45.370Z,18.21
2018-01-27T23:21:12.803Z,18.20
2018-01-27T23:23:40.213Z,18.22
2018-01-27T23:26:07.573Z,18.24
2018-01-27T23:28:35.001Z,18.20
2018-01-27T23:31:02.418Z,18.19
2018-01-27T23:33:29.848Z,18.18
2018-01-27T23:35:57.303Z,18.19
2018-01-27T23:38:24.675Z,18.19
2018-01-27T23:40:52.053Z,18.17
2018-01-27T23:43:19.514Z,18.17
2018-01-27T23:45:46.951Z,18.15
2018-01-27T23:48:14.332Z,18.15
2018-01-27T23:50:41.811Z,18.18
2018-01-27T23:53:09.201Z,18.17
2018-01-27T23:55:36.739Z,18.17
2018-01-27T23:58:04.111Z,18.17
